createdAt,value
2023-01-05T00:01:48.521Z,9.80
2023-01-05T00:04:16.860Z,9.80
2023-01-05T00:06:44.984Z,9.80
2023-01-05T00:09:15.418Z,9.80
2023-01-05T00:12:01.478Z,9.90
2023-01-05T00:14:48.689Z,9.90
2023-01-05T00:17:37.862Z,10.00
2023-01-05T00:20:25.385Z,10.00
2023-01-05T00:22:55.170Z,9.90
2023-01-05T00:25:25.315Z,10.00
2023-01-05T00:27:54.180Z,10.00
2023-01-05T00:30:24.306Z,10.00
2023-01-05T00:32:54.749Z,10.10
2023-01-05T00:35:23.547Z,10.10
2023-01-05T00:37:52.452Z,10.10
2023-01-05T00:40:22.011Z,10.10
2023-01-05T00:42:50.341Z,10.10
2023-01-05T00:45:19.315Z,10.10
2023-01-05T00:47:47.696Z,10.10
2023-01-05T00:50:19.101Z,10.10
2023-01-05T00:52:47.986Z,10.20
2023-01-05T00:55:16.477Z,10.20
2023-01-05T00:57:45.613Z,10.20
2023-01-05T01:00:17.430Z,10.20
2023-01-05T01:02:46.115Z,10.20
2023-01-05T01:05:16.187Z,10.20
2023-01-05T01:07:44.299Z,10.20
2023-01-05T01:10:13.411Z,10.10
2023-01-05T01:12:44.284Z,10.10
2023-01-05T01:15:12.711Z,10.10
2023-01-05T01:17:40.860Z,10.10
2023-01-05T01:20:10.343Z,10.10
2023-01-05T01:22:39.840Z,10.10
2023-01-05T01:25:08.712Z,10.10
2023-01-05T01:27:36.832Z,10.20
2023-01-05T01:30:05.823Z,10.20
2023-01-05T01:32:33.895Z,10.20
2023-01-05T01:35:02.016Z,10.20
2023-01-05T01:37:30.132Z,10.30
2023-01-05T01:39:59.888Z,10.30
2023-01-05T01:42:28.024Z,10.30
2023-01-05T01:44:59.230Z,10.30
2023-01-05T01:47:39.079Z,10.30
2023-01-05T01:50:14.928Z,10.30
2023-01-05T01:52:44.342Z,10.30
2023-01-05T01:55:14.421Z,10.30
2023-01-05T01:57:44.071Z,10.30
2023-01-05T02:00:14.841Z,10.40
2023-01-05T02:02:43.382Z,10.30
2023-01-05T02:05:14.264Z,10.30
2023-01-05T02:07:46.860Z,10.30
2023-01-05T02:10:19.505Z,10.30
2023-01-05T02:12:59.942Z,10.30
2023-01-05T02:15:37.807Z,10.30
2023-01-05T02:18:19.138Z,10.30
2023-01-05T02:21:04.116Z,10.30
2023-01-05T02:24:00.006Z,10.30
2023-01-05T02:27:03.860Z,10.30
2023-01-05T02:30:05.885Z,10.30
2023-01-05T02:32:41.548Z,10.30
2023-01-05T02:35:19.807Z,10.30
2023-01-05T02:38:02.242Z,10.20
2023-01-05T02:40:37.943Z,10.20
2023-01-05T02:43:07.704Z,10.20
2023-01-05T02:45:35.894Z,10.10
2023-01-05T02:48:06.316Z,10.00
2023-01-05T02:50:41.084Z,10.00
2023-01-05T02:53:15.551Z,10.00
2023-01-05T02:55:46.606Z,9.90
2023-01-05T02:58:19.100Z,9.90
2023-01-05T03:00:52.085Z,9.90
2023-01-05T03:03:26.170Z,9.90
2023-01-05T03:05:59.657Z,9.90
2023-01-05T03:08:33.105Z,9.90
2023-01-05T03:11:23.332Z,9.90
2023-01-05T03:13:56.657Z,9.90
2023-01-05T03:16:32.364Z,9.90
2023-01-05T03:19:21.383Z,9.90
2023-01-05T03:22:10.157Z,9.90
2023-01-05T03:24:56.850Z,9.90
2023-01-05T03:27:43.911Z,9.90
2023-01-05T03:30:31.337Z,9.90
2023-01-05T03:33:25.629Z,9.90
2023-01-05T03:36:00.350Z,9.90
2023-01-05T03:38:32.222Z,9.90
2023-01-05T03:41:03.532Z,9.90
2023-01-05T03:43:35.665Z,9.90
2023-01-05T03:46:12.453Z,9.90
2023-01-05T03:48:40.887Z,10.00
2023-01-05T03:51:10.773Z,10.00
2023-01-05T03:53:39.168Z,10.00
2023-01-05T03:56:07.860Z,10.00
2023-01-05T03:58:36.021Z,10.00
2023-01-05T04:01:04.775Z,10.00
2023-01-05T04:03:33.159Z,10.00
2023-01-05T04:06:01.646Z,10.00
2023-01-05T04:08:31.521Z,10.00
2023-01-05T04:11:11.958Z,10.00
2023-01-05T04:13:40.267Z,10.00
2023-01-05T04:16:09.049Z,9.90
2023-01-05T04:18:37.425Z,9.90
2023-01-05T04:21:06.967Z,9.90
2023-01-05T04:23:37.221Z,9.80
2023-01-05T04:26:05.551Z,9.80
2023-01-05T04:28:33.730Z,9.80
2023-01-05T04:31:01.908Z,9.80
2023-01-05T04:33:30.052Z,9.80
2023-01-05T04:35:58.441Z,9.80
2023-01-05T04:38:26.531Z,9.80
2023-01-05T04:40:56.027Z,9.80
2023-01-05T04:43:24.153Z,9.90
2023-01-05T04:45:52.304Z,9.90
2023-01-05T04:48:20.479Z,9.90
2023-01-05T04:50:55.008Z,9.90
2023-01-05T04:53:23.760Z,9.90
2023-01-05T04:55:52.156Z,9.90
2023-01-05T04:58:22.251Z,9.90
2023-01-05T05:00:50.921Z,9.90
2023-01-05T05:03:19.500Z,9.90
2023-01-05T05:05:47.744Z,9.90
2023-01-05T05:08:15.878Z,9.90
2023-01-05T05:10:44.006Z,9.90
2023-01-05T05:13:12.111Z,9.90
2023-01-05T05:15:41.939Z,9.90
2023-01-05T05:18:10.060Z,9.90
2023-01-05T05:20:39.189Z,9.90
2023-01-05T05:23:08.036Z,9.90
2023-01-05T05:25:36.498Z,9.90
2023-01-05T05:28:04.631Z,9.90
2023-01-05T05:30:33.035Z,9.80
2023-01-05T05:33:02.507Z,9.80
2023-01-05T05:35:30.690Z,9.80
2023-01-05T05:37:58.801Z,9.70
2023-01-05T05:40:28.264Z,9.70
2023-01-05T05:42:56.422Z,9.70
2023-01-05T05:45:24.835Z,9.70
2023-01-05T05:47:52.929Z,9.70
2023-01-05T05:50:22.522Z,9.70
2023-01-05T05:52:51.288Z,9.60
2023-01-05T05:55:19.411Z,9.60
2023-01-05T05:57:47.756Z,9.60
2023-01-05T06:00:16.895Z,9.60
2023-01-05T06:02:45.265Z,9.60
2023-01-05T06:05:13.421Z,9.60
2023-01-05T06:07:43.172Z,9.60
2023-01-05T06:10:11.994Z,9.60
2023-01-05T06:12:40.229Z,9.60
2023-01-05T06:15:09.568Z,9.60
2023-01-05T06:17:37.953Z,9.60
2023-01-05T06:20:07.678Z,9.60
2023-01-05T06:22:35.740Z,9.60
2023-01-05T06:25:06.125Z,9.60
2023-01-05T06:27:34.229Z,9.60
2023-01-05T06:30:02.581Z,9.60
2023-01-05T06:32:30.683Z,9.70
2023-01-05T06:34:58.769Z,9.70
2023-01-05T06:37:26.893Z,9.70
2023-01-05T06:39:56.281Z,9.70
2023-01-05T06:42:25.763Z,9.70
2023-01-05T06:44:54.050Z,9.70
2023-01-05T06:47:22.166Z,9.70
2023-01-05T06:49:50.456Z,9.70
2023-01-05T06:52:18.901Z,9.70
2023-01-05T06:54:47.028Z,9.70
2023-01-05T06:57:15.225Z,9.70
2023-01-05T06:59:44.723Z,9.70
2023-01-05T07:02:15.665Z,9.60
2023-01-05T07:04:44.214Z,9.70
2023-01-05T07:07:13.814Z,9.70
2023-01-05T07:09:42.067Z,9.70
2023-01-05T07:12:10.144Z,9.70
2023-01-05T07:14:38.613Z,9.70
2023-01-05T07:17:08.216Z,9.70
2023-01-05T07:19:36.316Z,9.60
2023-01-05T07:22:04.432Z,9.60
2023-01-05T07:24:32.588Z,9.60
2023-01-05T07:27:07.581Z,9.60
2023-01-05T07:29:37.802Z,9.60
2023-01-05T07:32:07.869Z,9.60
2023-01-05T07:34:35.985Z,9.60
2023-01-05T07:37:04.065Z,9.60
2023-01-05T07:39:32.525Z,9.60
2023-01-05T07:42:00.906Z,9.60
2023-01-05T07:44:29.413Z,9.60
2023-01-05T07:46:58.586Z,9.60
2023-01-05T07:49:29.005Z,9.70
2023-01-05T07:51:57.179Z,9.70
2023-01-05T07:54:25.396Z,9.70
2023-01-05T07:56:53.679Z,9.60
2023-01-05T07:59:21.806Z,9.60
2023-01-05T08:01:50.330Z,9.70
2023-01-05T08:04:18.698Z,9.60
2023-01-05T08:06:48.552Z,9.60
2023-01-05T08:09:34.214Z,9.60
2023-01-05T08:12:02.545Z,9.60
2023-01-05T08:14:29.993Z,9.70
2023-01-05T08:16:58.176Z,9.70
2023-01-05T08:19:26.361Z,9.70
2023-01-05T08:21:56.181Z,9.60
2023-01-05T08:24:24.517Z,9.50
2023-01-05T08:26:52.644Z,9.50
2023-01-05T08:29:21.118Z,9.50
2023-01-05T08:31:49.371Z,9.40
2023-01-05T08:34:17.573Z,9.40
2023-01-05T08:36:46.538Z,9.40
2023-01-05T08:39:16.003Z,9.40
2023-01-05T08:41:44.334Z,9.50
2023-01-05T08:44:14.164Z,9.50
2023-01-05T08:46:42.359Z,9.50
2023-01-05T08:49:10.764Z,9.50
2023-01-05T08:51:39.451Z,9.50
2023-01-05T08:54:08.078Z,9.50
2023-01-05T08:56:39.231Z,9.60
2023-01-05T08:59:08.517Z,9.50
2023-01-05T09:01:37.224Z,9.50
2023-01-05T09:04:05.872Z,9.40
2023-01-05T09:06:34.022Z,9.50
2023-01-05T09:09:02.133Z,9.50
2023-01-05T09:11:30.256Z,9.60
2023-01-05T09:14:03.186Z,9.50
2023-01-05T09:19:21.203Z,9.50
2023-01-05T09:21:49.315Z,9.60
2023-01-05T09:24:17.835Z,9.60
2023-01-05T09:26:46.185Z,9.50
2023-01-05T09:29:15.703Z,9.50
2023-01-05T09:31:44.590Z,9.50
2023-01-05T09:34:13.503Z,9.50
2023-01-05T09:36:41.793Z,9.50
2023-01-05T09:39:10.791Z,9.40
2023-01-05T09:41:43.208Z,9.40
2023-01-05T09:44:21.434Z,9.40
2023-01-05T09:46:51.811Z,9.40
2023-01-05T09:49:22.980Z,9.40
2023-01-05T09:51:55.708Z,9.40
2023-01-05T09:54:25.656Z,9.50
2023-01-05T09:57:10.541Z,9.50
2023-01-05T09:59:44.217Z,9.50
2023-01-05T10:02:21.623Z,9.60
2023-01-05T10:04:50.841Z,9.60
2023-01-05T10:07:39.314Z,9.60
2023-01-05T10:10:16.230Z,9.60
2023-01-05T10:13:06.908Z,9.50
2023-01-05T10:15:41.386Z,9.50
2023-01-05T10:18:15.341Z,9.50
2023-01-05T10:20:59.284Z,9.40
2023-01-05T10:23:45.495Z,9.40
2023-01-05T10:26:20.283Z,9.40
2023-01-05T10:28:55.204Z,9.30
2023-01-05T10:31:35.537Z,9.30
2023-01-05T10:34:16.383Z,9.30
2023-01-05T10:37:08.426Z,9.40
2023-01-05T10:40:03.690Z,9.30
2023-01-05T10:42:47.916Z,9.30
2023-01-05T10:45:18.137Z,9.60
2023-01-05T10:47:49.083Z,9.80
2023-01-05T10:50:28.859Z,10.10
2023-01-05T10:52:58.466Z,10.30
2023-01-05T10:55:29.083Z,10.10
2023-01-05T10:57:57.750Z,10.20
2023-01-05T11:00:41.915Z,10.30
2023-01-05T11:10:57.181Z,10.70
2023-01-05T11:13:32.386Z,10.70
2023-01-05T11:16:12.911Z,11.00
2023-01-05T11:18:49.948Z,10.60
2023-01-05T11:21:20.125Z,10.80
2023-01-05T11:23:49.829Z,11.00
2023-01-05T11:26:31.886Z,11.40
2023-01-05T11:29:22.152Z,11.60
2023-01-05T11:31:53.695Z,12.00
2023-01-05T11:34:30.320Z,12.10
2023-01-05T11:37:05.624Z,12.20
2023-01-05T11:39:48.727Z,12.00
2023-01-05T11:42:25.387Z,11.80
2023-01-05T11:44:57.076Z,11.90
2023-01-05T11:47:32.769Z,12.00
2023-01-05T11:50:09.710Z,11.80
2023-01-05T11:52:39.852Z,11.90
2023-01-05T11:55:30.489Z,12.00
2023-01-05T11:58:26.767Z,12.00
2023-01-05T12:01:13.863Z,11.90
2023-01-05T12:04:02.261Z,11.80
2023-01-05T12:06:52.077Z,12.00
2023-01-05T12:09:32.698Z,12.00
2023-01-05T12:12:15.875Z,11.90
2023-01-05T12:15:03.213Z,11.80
2023-01-05T12:17:38.348Z,11.80
2023-01-05T12:20:32.868Z,11.50
2023-01-05T12:23:20.240Z,11.50
2023-01-05T12:25:59.687Z,11.60
2023-01-05T12:30:09.059Z,11.60
2023-01-05T12:35:22.242Z,11.20
2023-01-05T12:38:02.559Z,11.30
2023-01-05T12:40:50.675Z,11.30
2023-01-05T12:43:35.952Z,11.30
2023-01-05T12:46:25.804Z,11.40
2023-01-05T12:48:59.010Z,11.30
2023-01-05T12:51:34.622Z,11.20
2023-01-05T12:54:10.684Z,11.20
2023-01-05T12:56:42.629Z,11.00
2023-01-05T12:59:18.947Z,10.80
2023-01-05T13:01:53.995Z,11.00
2023-01-05T13:04:46.799Z,10.80
2023-01-05T13:07:22.037Z,10.80
2023-01-05T13:10:02.314Z,10.70
2023-01-05T13:12:31.698Z,10.40
2023-01-05T13:15:09.082Z,10.40
2023-01-05T13:17:42.277Z,10.30
2023-01-05T13:20:24.759Z,10.40
2023-01-05T13:22:57.606Z,10.40
2023-01-05T13:25:28.782Z,10.40
2023-01-05T13:27:57.059Z,10.20
2023-01-05T13:30:29.064Z,10.10
2023-01-05T13:33:13.274Z,10.10
2023-01-05T13:35:56.978Z,10.10
2023-01-05T13:39:03.042Z,10.00
2023-01-05T13:41:46.812Z,9.90
2023-01-05T13:44:45.555Z,9.80
2023-01-05T13:47:27.944Z,10.00
2023-01-05T13:50:28.503Z,9.90
2023-01-05T13:53:07.505Z,9.80
2023-01-05T13:55:41.106Z,10.00
2023-01-05T13:58:38.086Z,9.90
2023-01-05T14:01:09.192Z,9.70
2023-01-05T14:03:40.497Z,9.70
2023-01-05T14:06:18.915Z,10.00
2023-01-05T14:11:18.927Z,9.80
2023-01-05T14:13:53.460Z,9.70
2023-01-05T14:16:48.375Z,9.70
2023-01-05T14:19:22.568Z,9.60
2023-01-05T14:22:22.815Z,9.50
2023-01-05T14:24:52.122Z,9.30
2023-01-05T14:27:24.238Z,9.20
2023-01-05T14:30:24.286Z,9.20
2023-01-05T14:32:56.932Z,9.30
2023-01-05T14:35:32.189Z,9.10
2023-01-05T14:38:03.175Z,9.10
2023-01-05T14:40:38.607Z,9.20
2023-01-05T14:43:22.128Z,9.10
2023-01-05T14:46:10.140Z,9.00
2023-01-05T14:48:41.403Z,8.90
2023-01-05T14:51:20.486Z,8.80
2023-01-05T14:53:50.508Z,8.80
2023-01-05T14:56:22.179Z,8.80
2023-01-05T14:59:21.939Z,8.70
2023-01-05T15:01:53.899Z,8.70
2023-01-05T15:04:26.848Z,8.70
2023-01-05T15:07:19.914Z,8.70
2023-01-05T15:10:12.246Z,8.50
2023-01-05T15:13:12.923Z,8.40
2023-01-05T15:15:50.553Z,8.30
2023-01-05T15:18:55.376Z,8.40
2023-01-05T15:21:47.912Z,8.40
2023-01-05T15:24:58.030Z,8.20
2023-01-05T15:27:38.964Z,8.20
2023-01-05T15:30:22.779Z,8.20
2023-01-05T15:33:01.424Z,8.20
2023-01-05T15:35:34.814Z,8.20
2023-01-05T15:38:20.628Z,8.20
2023-01-05T15:40:50.175Z,8.10
2023-01-05T15:43:18.964Z,8.10
2023-01-05T15:45:53.788Z,8.20
2023-01-05T15:48:29.866Z,8.10
2023-01-05T15:50:59.928Z,8.00
2023-01-05T15:53:32.961Z,8.00
2023-01-05T15:56:02.092Z,8.00
2023-01-05T15:58:33.387Z,7.90
2023-01-05T16:01:04.678Z,7.90
2023-01-05T16:03:35.543Z,7.90
2023-01-05T16:06:07.421Z,8.00
2023-01-05T16:08:40.823Z,7.80
2023-01-05T16:11:11.640Z,7.80
2023-01-05T16:13:45.712Z,7.70
2023-01-05T16:16:43.328Z,7.80
2023-01-05T16:19:14.600Z,7.70
2023-01-05T16:21:46.696Z,7.60
2023-01-05T16:24:21.268Z,7.60
2023-01-05T16:26:49.411Z,7.50
2023-01-05T16:29:22.881Z,7.60
2023-01-05T16:31:55.176Z,7.50
2023-01-05T16:34:27.672Z,7.50
2023-01-05T16:37:08.520Z,7.50
2023-01-05T16:39:41.093Z,7.60
2023-01-05T16:42:40.450Z,7.50
2023-01-05T16:45:15.050Z,7.50
2023-01-05T16:47:43.430Z,7.50
2023-01-05T16:50:57.363Z,7.40
2023-01-05T16:53:25.927Z,7.40
2023-01-05T16:55:57.121Z,7.40
2023-01-05T16:58:37.606Z,7.30
2023-01-05T17:01:27.201Z,7.30
2023-01-05T17:03:55.397Z,7.20
2023-01-05T17:06:29.044Z,7.20
2023-01-05T17:09:01.007Z,7.20
2023-01-05T17:11:35.671Z,7.20
2023-01-05T17:14:04.920Z,7.20
2023-01-05T17:16:33.298Z,7.20
2023-01-05T17:19:02.405Z,7.20
2023-01-05T17:21:33.741Z,7.20
2023-01-05T17:24:02.202Z,7.20
2023-01-05T17:26:34.537Z,7.20
2023-01-05T17:29:04.952Z,7.10
2023-01-05T17:31:33.026Z,7.10
2023-01-05T17:34:01.456Z,7.10
2023-01-05T17:36:33.933Z,7.10
2023-01-05T17:39:02.748Z,7.00
2023-01-05T17:41:30.896Z,7.00
2023-01-05T17:43:59.332Z,6.90
2023-01-05T17:46:32.058Z,7.00
2023-01-05T17:49:01.029Z,7.00
2023-01-05T17:51:29.504Z,7.00
2023-01-05T17:54:00.303Z,7.10
2023-01-05T17:56:28.472Z,7.10
2023-01-05T17:58:56.621Z,7.10
2023-01-05T18:01:24.850Z,7.20
2023-01-05T18:03:53.326Z,7.20
2023-01-05T18:06:21.494Z,7.30
2023-01-05T18:08:49.888Z,7.20
2023-01-05T18:11:19.728Z,7.20
2023-01-05T18:13:48.407Z,7.20
2023-01-05T18:16:16.773Z,7.30
2023-01-05T18:18:44.893Z,7.20
2023-01-05T18:21:13.019Z,7.30
2023-01-05T18:23:41.160Z,7.20
2023-01-05T18:26:11.275Z,7.20
2023-01-05T18:28:40.756Z,7.20
2023-01-05T18:31:13.168Z,7.20
2023-01-05T18:33:41.329Z,7.20
2023-01-05T18:36:12.887Z,7.20
2023-01-05T18:38:41.693Z,7.20
2023-01-05T18:41:10.235Z,7.20
2023-01-05T18:43:39.212Z,7.30
2023-01-05T18:46:08.872Z,7.30
2023-01-05T18:48:37.060Z,7.30
2023-01-05T18:51:08.123Z,7.30
2023-01-05T18:53:38.401Z,7.30
2023-01-05T18:56:08.030Z,7.40
2023-01-05T18:58:36.484Z,7.30
2023-01-05T19:01:10.808Z,7.30
2023-01-05T19:03:39.282Z,7.40
2023-01-05T19:06:08.470Z,7.40
2023-01-05T19:08:37.212Z,7.40
2023-01-05T19:11:12.665Z,7.40
2023-01-05T19:13:41.604Z,7.40
2023-01-05T19:16:11.353Z,7.40
2023-01-05T19:18:39.525Z,7.50
2023-01-05T19:21:07.672Z,7.40
2023-01-05T19:23:35.768Z,7.50
2023-01-05T19:26:04.710Z,7.50
2023-01-05T19:28:35.388Z,7.50
2023-01-05T19:31:08.275Z,7.50
2023-01-05T19:33:38.883Z,7.50
2023-01-05T19:36:10.025Z,7.50
2023-01-05T19:38:39.178Z,7.70
2023-01-05T19:41:09.626Z,7.70
2023-01-05T19:43:41.051Z,7.70
2023-01-05T19:46:12.247Z,7.60
2023-01-05T19:48:42.660Z,7.60
2023-01-05T19:51:12.858Z,7.50
2023-01-05T19:53:42.581Z,7.60
2023-01-05T19:56:13.965Z,7.60
2023-01-05T19:58:43.764Z,7.60
2023-01-05T20:01:13.747Z,7.60
2023-01-05T20:03:44.763Z,7.70
2023-01-05T20:06:18.472Z,7.70
2023-01-05T20:08:52.362Z,7.80
2023-01-05T20:11:36.079Z,7.70
2023-01-05T20:14:05.100Z,7.70
2023-01-05T20:16:33.288Z,7.70
2023-01-05T20:19:02.926Z,7.80
2023-01-05T20:21:32.431Z,7.80
2023-01-05T20:24:02.364Z,7.80
2023-01-05T20:26:31.867Z,7.80
2023-01-05T20:29:01.823Z,7.90
2023-01-05T20:31:32.183Z,7.80
2023-01-05T20:34:05.795Z,7.80
2023-01-05T20:36:35.087Z,7.80
2023-01-05T20:39:06.495Z,7.80
2023-01-05T20:41:37.477Z,8.00
2023-01-05T20:44:06.459Z,7.80
2023-01-05T20:46:36.962Z,7.90
2023-01-05T20:49:06.841Z,7.90
2023-01-05T20:51:35.327Z,7.90
2023-01-05T20:54:05.858Z,8.00
2023-01-05T20:56:38.669Z,8.10
2023-01-05T20:59:09.195Z,8.10
2023-01-05T21:01:37.931Z,8.00
2023-01-05T21:04:07.983Z,7.90
2023-01-05T21:06:36.504Z,7.80
2023-01-05T21:09:06.045Z,7.80
2023-01-05T21:11:34.251Z,7.80
2023-01-05T21:14:06.245Z,7.80
2023-01-05T21:16:37.297Z,7.90
2023-01-05T21:19:07.989Z,7.80
2023-01-05T21:21:36.420Z,8.00
2023-01-05T21:24:07.747Z,8.00
2023-01-05T21:26:35.884Z,8.00
2023-01-05T21:29:05.718Z,8.10
2023-01-05T21:31:34.550Z,8.00
2023-01-05T21:34:02.682Z,7.90
2023-01-05T21:36:33.407Z,7.90
2023-01-05T21:39:04.019Z,7.90
2023-01-05T21:41:50.084Z,7.90
2023-01-05T21:44:19.172Z,7.90
2023-01-05T21:46:48.530Z,7.90
2023-01-05T21:49:16.987Z,7.70
2023-01-05T21:52:04.407Z,7.90
2023-01-05T21:54:50.123Z,7.80
2023-01-05T21:57:18.424Z,7.80
2023-01-05T21:59:47.137Z,7.70
2023-01-05T22:02:15.803Z,7.70
2023-01-05T22:04:44.555Z,7.60
2023-01-05T22:07:14.150Z,7.70
2023-01-05T22:09:42.277Z,7.80
2023-01-05T22:12:10.501Z,7.70
2023-01-05T22:14:39.643Z,7.70
2023-01-05T22:17:09.567Z,7.70
2023-01-05T22:19:38.453Z,7.80
2023-01-05T22:22:06.777Z,7.70
2023-01-05T22:24:36.240Z,7.70
2023-01-05T22:27:05.424Z,7.70
2023-01-05T22:29:33.827Z,7.70
2023-01-05T22:32:03.159Z,7.70
2023-01-05T22:34:31.719Z,7.90
2023-01-05T22:37:00.060Z,7.90
2023-01-05T22:39:28.484Z,7.70
2023-01-05T22:41:57.965Z,7.60
2023-01-05T22:44:26.542Z,7.70
2023-01-05T22:46:54.658Z,7.80
2023-01-05T22:49:23.171Z,7.60
2023-01-05T22:51:51.258Z,7.70
2023-01-05T22:54:19.761Z,7.60
2023-01-05T22:56:48.172Z,7.60
2023-01-05T22:59:17.951Z,7.60
2023-01-05T23:01:47.669Z,7.50
2023-01-05T23:04:16.714Z,7.60
2023-01-05T23:06:44.971Z,7.70
2023-01-05T23:09:15.738Z,7.70
2023-01-05T23:11:46.367Z,7.60
2023-01-05T23:14:17.485Z,7.60
2023-01-05T23:16:47.048Z,7.60
2023-01-05T23:19:16.932Z,7.60
2023-01-05T23:21:46.149Z,7.50
2023-01-05T23:24:14.303Z,7.40
2023-01-05T23:26:42.491Z,7.50
2023-01-05T23:29:10.619Z,7.50
2023-01-05T23:31:39.060Z,7.50
2023-01-05T23:34:08.583Z,7.50
2023-01-05T23:36:36.703Z,7.50
2023-01-05T23:39:04.969Z,7.50
2023-01-05T23:41:33.052Z,7.40
2023-01-05T23:44:01.165Z,7.50
2023-01-05T23:46:29.456Z,7.60
2023-01-05T23:48:57.654Z,7.50
2023-01-05T23:51:27.449Z,7.40
2023-01-05T23:53:55.731Z,7.40
2023-01-05T23:56:25.854Z,7.40
2023-01-05T23:58:57.645Z,7.40
